createdAt,value
2023-09-04T00:00:54.909Z,2.95
2023-09-04T00:03:36.519Z,2.42
2023-09-04T00:06:03.548Z,2.92
2023-09-04T00:08:30.979Z,3.38
2023-09-04T00:10:58.009Z,3.05
2023-09-04T00:13:25.248Z,3.35
2023-09-04T00:15:56.417Z,3.00
2023-09-04T00:18:24.607Z,2.92
2023-09-04T00:20:54.751Z,3.00
2023-09-04T00:23:22.163Z,2.90
2023-09-04T00:25:49.061Z,3.03
2023-09-04T00:28:19.580Z,3.35
2023-09-04T00:30:46.633Z,2.55
2023-09-04T00:33:13.899Z,2.78
2023-09-04T00:35:41.099Z,2.63
2023-09-04T00:38:08.357Z,3.25
2023-09-04T00:40:35.413Z,3.00
2023-09-04T00:43:02.833Z,3.40
2023-09-04T00:45:30.124Z,2.92
2023-09-04T00:47:57.473Z,3.03
2023-09-04T00:50:25.276Z,2.78
2023-09-04T00:52:57.127Z,2.92
2023-09-04T00:55:24.558Z,2.70
2023-09-04T00:57:52.962Z,2.78
2023-09-04T01:00:23.687Z,2.95
2023-09-04T01:02:51.878Z,3.03
2023-09-04T01:05:18.998Z,3.35
2023-09-04T01:07:47.287Z,3.03
2023-09-04T01:10:15.036Z,3.10
2023-09-04T01:12:52.191Z,3.20
2023-09-04T01:15:19.465Z,3.53
2023-09-04T01:17:47.324Z,2.78
2023-09-04T01:20:34.810Z,2.78
2023-09-04T01:23:02.165Z,3.35
2023-09-04T01:26:04.993Z,3.00
2023-09-04T01:28:42.382Z,3.33
2023-09-04T01:31:15.332Z,3.10
2023-09-04T01:33:48.361Z,2.70
2023-09-04T01:36:17.637Z,2.85
2023-09-04T01:38:47.143Z,2.92
2023-09-04T01:41:15.970Z,2.90
2023-09-04T01:43:43.523Z,3.00
2023-09-04T01:46:10.676Z,3.05
2023-09-04T01:48:37.932Z,2.38
2023-09-04T01:51:05.010Z,2.80
2023-09-04T01:53:32.224Z,2.70
2023-09-04T01:56:00.635Z,2.55
2023-09-04T01:58:29.271Z,3.03
2023-09-04T02:00:56.521Z,2.78
2023-09-04T02:03:23.990Z,2.97
2023-09-04T02:05:51.237Z,2.40
2023-09-04T02:08:18.466Z,2.13
2023-09-04T02:10:45.483Z,2.63
2023-09-04T02:13:12.860Z,2.53
2023-09-04T02:15:40.380Z,3.28
2023-09-04T02:18:07.754Z,2.88
2023-09-04T02:20:34.864Z,3.17
2023-09-04T02:23:03.083Z,3.58
2023-09-04T02:25:30.090Z,3.63
2023-09-04T02:27:57.465Z,3.78
2023-09-04T02:30:24.514Z,3.80
2023-09-04T02:32:59.968Z,3.65
2023-09-04T02:35:28.411Z,3.63
2023-09-04T02:37:55.689Z,3.72
2023-09-04T02:40:22.768Z,3.70
2023-09-04T02:42:50.379Z,3.40
2023-09-04T02:45:17.298Z,3.60
2023-09-04T02:47:44.952Z,2.75
2023-09-04T02:50:12.183Z,4.00
2023-09-04T02:52:39.959Z,3.10
2023-09-04T02:55:07.870Z,3.42
2023-09-04T02:57:35.186Z,3.17
2023-09-04T03:00:04.987Z,3.63
2023-09-04T03:02:32.544Z,3.50
2023-09-04T03:04:59.519Z,3.22
2023-09-04T03:07:28.455Z,3.90
2023-09-04T03:09:56.805Z,3.45
2023-09-04T03:12:28.821Z,4.00
2023-09-04T03:15:00.447Z,3.67
2023-09-04T03:17:29.967Z,3.70
2023-09-04T03:19:58.841Z,3.10
2023-09-04T03:22:27.716Z,2.95
2023-09-04T03:24:56.194Z,2.70
2023-09-04T03:27:27.697Z,2.58
2023-09-04T03:29:55.914Z,3.35
2023-09-04T03:32:23.964Z,3.25
2023-09-04T03:34:50.916Z,3.70
2023-09-04T03:37:18.491Z,3.53
2023-09-04T03:39:45.547Z,3.05
2023-09-04T03:42:13.523Z,3.30
2023-09-04T03:44:40.618Z,2.85
2023-09-04T03:47:07.865Z,3.20
2023-09-04T03:49:36.243Z,2.22
2023-09-04T03:52:03.629Z,2.50
2023-09-04T03:54:32.325Z,3.78
2023-09-04T03:56:59.677Z,3.08
2023-09-04T03:59:26.616Z,3.65
2023-09-04T04:01:54.767Z,3.30
2023-09-04T04:04:21.824Z,3.88
2023-09-04T04:06:49.080Z,3.47
2023-09-04T04:09:17.133Z,4.07
2023-09-04T04:11:45.019Z,4.03
2023-09-04T04:14:12.831Z,3.83
2023-09-04T04:16:40.602Z,4.10
2023-09-04T04:19:07.917Z,3.97
2023-09-04T04:21:35.234Z,4.43
2023-09-04T04:24:02.171Z,4.35
2023-09-04T04:26:29.748Z,4.28
2023-09-04T04:28:56.716Z,3.35
2023-09-04T04:31:24.283Z,3.58
2023-09-04T04:33:51.615Z,4.18
2023-09-04T04:36:20.104Z,4.07
2023-09-04T04:38:47.117Z,4.43
2023-09-04T04:41:14.754Z,3.90
2023-09-04T04:43:42.216Z,3.90
2023-09-04T04:46:13.788Z,3.38
2023-09-04T04:48:41.134Z,4.32
2023-09-04T04:51:09.151Z,4.20
2023-09-04T04:53:37.474Z,4.28
2023-09-04T04:56:04.963Z,4.30
2023-09-04T04:58:31.911Z,3.97
2023-09-04T05:00:59.375Z,5.00
2023-09-04T05:03:26.718Z,5.05
2023-09-04T05:05:54.001Z,4.63
2023-09-04T05:08:21.099Z,5.13
2023-09-04T05:10:59.271Z,5.32
2023-09-04T05:13:26.310Z,5.45
2023-09-04T05:15:53.771Z,5.10
2023-09-04T05:18:21.227Z,5.25
2023-09-04T05:20:49.639Z,5.22
2023-09-04T05:23:16.524Z,5.40
2023-09-04T05:25:53.774Z,5.20
2023-09-04T05:28:21.380Z,5.13
2023-09-04T05:30:48.864Z,4.80
2023-09-04T05:33:15.714Z,5.07
2023-09-04T05:35:43.258Z,4.93
2023-09-04T05:38:10.455Z,5.15
2023-09-04T05:40:37.649Z,5.53
2023-09-04T05:43:04.545Z,4.65
2023-09-04T05:45:31.817Z,4.88
2023-09-04T05:47:59.427Z,4.90
2023-09-04T05:50:26.712Z,5.05
2023-09-04T05:52:54.494Z,4.72
2023-09-04T05:55:21.723Z,5.40
2023-09-04T05:57:48.681Z,5.38
2023-09-04T06:00:16.153Z,4.32
2023-09-04T06:02:43.445Z,5.20
2023-09-04T06:05:10.722Z,4.85
2023-09-04T06:07:38.008Z,5.00
2023-09-04T06:10:05.764Z,4.63
2023-09-04T06:12:32.776Z,4.88
2023-09-04T06:15:00.022Z,4.80
2023-09-04T06:17:27.006Z,5.35
2023-09-04T06:19:54.295Z,4.68
2023-09-04T06:22:21.223Z,5.20
2023-09-04T06:24:49.913Z,4.72
2023-09-04T06:27:16.930Z,4.95
2023-09-04T06:29:44.180Z,4.90
2023-09-04T06:32:12.161Z,5.00
2023-09-04T06:34:39.363Z,4.47
2023-09-04T06:37:06.347Z,4.80
2023-09-04T06:39:33.634Z,4.95
2023-09-04T06:42:00.637Z,4.53
2023-09-04T06:44:33.797Z,4.63
2023-09-04T06:47:03.327Z,4.43
2023-09-04T06:49:31.052Z,4.22
2023-09-04T06:51:57.960Z,4.55
2023-09-04T06:54:25.527Z,4.75
2023-09-04T06:56:52.704Z,4.05
2023-09-04T06:59:20.219Z,4.00
2023-09-04T07:01:47.263Z,4.60
2023-09-04T07:04:14.822Z,4.28
2023-09-04T07:06:41.703Z,4.13
2023-09-04T07:09:09.092Z,4.20
2023-09-04T07:11:36.069Z,4.32
2023-09-04T07:14:03.584Z,3.67
2023-09-04T07:16:38.843Z,3.63
2023-09-04T07:19:09.396Z,4.18
2023-09-04T07:21:37.363Z,4.10
2023-09-04T07:24:05.322Z,3.92
2023-09-04T07:26:32.195Z,4.57
2023-09-04T07:28:59.505Z,3.97
2023-09-04T07:31:26.470Z,4.32
2023-09-04T07:33:53.672Z,4.32
2023-09-04T07:36:20.617Z,4.45
2023-09-04T07:38:48.636Z,4.70
2023-09-04T07:41:15.613Z,5.57
2023-09-04T07:43:42.988Z,5.47
2023-09-04T07:46:09.947Z,5.15
2023-09-04T07:48:37.416Z,5.32
2023-09-04T07:51:16.352Z,5.53
2023-09-04T07:53:47.166Z,4.80
2023-09-04T07:56:14.135Z,4.45
2023-09-04T07:58:41.463Z,4.55
2023-09-04T08:01:13.388Z,4.15
2023-09-04T08:03:41.836Z,4.20
2023-09-04T08:06:09.063Z,4.30
2023-09-04T08:08:37.132Z,3.47
2023-09-04T08:11:04.050Z,3.78
2023-09-04T08:13:31.376Z,4.40
2023-09-04T08:15:58.277Z,5.30
2023-09-04T08:18:25.665Z,4.60
2023-09-04T08:20:52.536Z,4.35
2023-09-04T08:23:19.979Z,4.00
2023-09-04T08:25:46.991Z,4.03
2023-09-04T08:28:14.201Z,3.47
2023-09-04T08:30:41.244Z,4.13
2023-09-04T08:33:08.604Z,3.85
2023-09-04T08:35:35.722Z,3.83
2023-09-04T08:38:05.606Z,3.70
2023-09-04T08:40:32.683Z,3.67
2023-09-04T08:43:00.123Z,3.58
2023-09-04T08:45:27.449Z,3.80
2023-09-04T08:47:56.080Z,3.90
2023-09-04T08:50:24.436Z,3.55
2023-09-04T08:52:52.170Z,3.67
2023-09-04T08:55:21.274Z,2.90
2023-09-04T08:57:49.138Z,3.50
2023-09-04T09:00:19.162Z,3.80
2023-09-04T09:02:47.014Z,3.60
2023-09-04T09:05:14.945Z,3.67
2023-09-04T09:07:42.742Z,3.50
2023-09-04T09:10:11.113Z,3.60
2023-09-04T09:12:38.445Z,3.17
2023-09-04T09:15:06.168Z,3.80
2023-09-04T09:17:33.407Z,3.55
2023-09-04T09:20:00.488Z,3.30
2023-09-04T09:22:27.741Z,3.58
2023-09-04T09:25:06.120Z,3.60
2023-09-04T09:27:34.244Z,3.05
2023-09-04T09:30:01.879Z,2.83
2023-09-04T09:32:31.097Z,3.40
2023-09-04T09:34:59.790Z,2.50
2023-09-04T09:37:31.210Z,2.83
2023-09-04T09:39:58.364Z,2.55
2023-09-04T09:42:26.652Z,3.47
2023-09-04T09:44:54.484Z,2.97
2023-09-04T09:47:22.793Z,3.00
2023-09-04T09:49:49.923Z,2.75
2023-09-04T09:52:17.433Z,2.42
2023-09-04T09:54:46.156Z,2.13
2023-09-04T09:57:15.358Z,2.42
2023-09-04T09:59:48.364Z,2.53
2023-09-04T10:02:24.013Z,2.35
2023-09-04T10:04:51.326Z,2.80
2023-09-04T10:07:22.076Z,2.63
2023-09-04T10:09:54.231Z,2.00
2023-09-04T10:12:21.525Z,2.05
2023-09-04T10:14:48.880Z,1.70
2023-09-04T10:17:20.169Z,2.05
2023-09-04T10:19:48.914Z,1.70
2023-09-04T10:22:26.558Z,2.28
2023-09-04T10:25:17.002Z,1.90
2023-09-04T10:27:54.416Z,1.75
2023-09-04T10:30:24.850Z,2.13
2023-09-04T10:32:53.331Z,1.98
2023-09-04T10:35:20.520Z,2.00
2023-09-04T10:37:50.779Z,2.05
2023-09-04T10:40:18.880Z,1.83
2023-09-04T10:42:46.517Z,1.75
2023-09-04T10:45:14.704Z,1.80
2023-09-04T10:47:47.454Z,1.63
2023-09-04T10:50:37.021Z,1.50
2023-09-04T10:53:08.288Z,1.65
2023-09-04T10:55:40.171Z,1.70
2023-09-04T10:58:08.957Z,1.67
2023-09-04T11:00:40.270Z,1.35
2023-09-04T11:03:17.451Z,1.52
2023-09-04T11:06:02.840Z,1.30
2023-09-04T11:08:31.071Z,1.30
2023-09-04T11:11:02.905Z,1.58
2023-09-04T11:13:30.663Z,1.50
2023-09-04T11:15:58.423Z,1.60
2023-09-04T11:18:32.945Z,1.40
2023-09-04T11:21:01.592Z,1.33
2023-09-04T11:23:29.413Z,1.30
2023-09-04T11:25:57.135Z,1.10
2023-09-04T11:28:26.866Z,1.20
2023-09-04T11:30:55.126Z,1.23
2023-09-04T11:33:22.718Z,1.20
2023-09-04T11:36:04.392Z,1.05
2023-09-04T11:38:33.620Z,1.25
2023-09-04T11:41:02.566Z,0.95
2023-09-04T11:43:30.163Z,1.38
2023-09-04T11:45:57.189Z,1.10
2023-09-04T11:48:28.768Z,1.30
2023-09-04T11:50:56.096Z,1.20
2023-09-04T11:53:24.078Z,1.02
2023-09-04T11:55:54.621Z,1.25
2023-09-04T11:58:22.430Z,1.35
2023-09-04T12:00:49.498Z,1.17
2023-09-04T12:03:16.879Z,1.35
2023-09-04T12:05:44.331Z,1.15
2023-09-04T12:08:11.596Z,1.30
2023-09-04T12:10:38.955Z,1.17
2023-09-04T12:13:07.724Z,1.15
2023-09-04T12:15:35.007Z,1.20
2023-09-04T12:18:04.280Z,1.20
2023-09-04T12:20:39.450Z,1.45
2023-09-04T12:23:07.240Z,1.20
2023-09-04T12:25:40.096Z,1.40
2023-09-04T12:28:16.059Z,1.33
2023-09-04T12:30:51.464Z,1.00
2023-09-04T12:33:19.008Z,1.13
2023-09-04T12:35:58.252Z,1.33
2023-09-04T12:38:25.855Z,1.50
2023-09-04T12:40:52.815Z,1.35
2023-09-04T12:43:20.057Z,1.23
2023-09-04T12:45:48.258Z,1.30
2023-09-04T12:48:16.686Z,1.63
2023-09-04T12:50:44.381Z,1.13
2023-09-04T12:53:11.608Z,1.50
2023-09-04T12:55:38.559Z,1.45
2023-09-04T12:58:10.229Z,1.35
2023-09-04T13:00:38.577Z,1.38
2023-09-04T13:03:06.827Z,1.40
2023-09-04T13:05:34.286Z,1.38
2023-09-04T13:11:11.232Z,1.25
2023-09-04T13:13:39.878Z,1.27
2023-09-04T13:16:06.888Z,1.38
2023-09-04T13:18:34.089Z,1.20
2023-09-04T13:21:01.815Z,1.40
2023-09-04T13:23:29.140Z,1.58
2023-09-04T13:25:56.147Z,1.40
2023-09-04T13:28:24.733Z,1.10
2023-09-04T13:30:51.758Z,1.20
2023-09-04T13:33:18.987Z,1.10
2023-09-04T13:35:46.075Z,1.55
2023-09-04T13:38:13.301Z,1.25
2023-09-04T13:40:40.975Z,1.33
2023-09-04T13:43:08.349Z,1.20
2023-09-04T13:45:35.326Z,1.45
2023-09-04T13:48:02.810Z,1.48
2023-09-04T13:50:29.818Z,1.60
2023-09-04T13:52:58.441Z,1.27
2023-09-04T13:55:25.448Z,1.13
2023-09-04T13:57:52.849Z,1.40
2023-09-04T14:00:21.033Z,1.40
2023-09-04T14:02:48.399Z,1.20
2023-09-04T14:05:17.524Z,1.50
2023-09-04T14:07:45.024Z,1.50
2023-09-04T14:10:12.035Z,1.20
2023-09-04T14:12:39.355Z,1.27
2023-09-04T14:15:07.094Z,1.45
2023-09-04T14:17:34.397Z,1.10
2023-09-04T14:20:01.367Z,1.45
2023-09-04T14:22:31.512Z,1.67
2023-09-04T14:24:58.800Z,1.70
2023-09-04T14:27:26.070Z,1.30
2023-09-04T14:29:53.490Z,1.50
2023-09-04T14:32:20.914Z,1.17
2023-09-04T14:34:47.891Z,1.80
2023-09-04T14:37:18.214Z,1.17
2023-09-04T14:39:46.023Z,1.40
2023-09-04T14:42:13.228Z,1.45
2023-09-04T14:44:42.689Z,1.38
2023-09-04T14:47:10.846Z,1.73
2023-09-04T14:49:37.785Z,1.40
2023-09-04T14:52:05.372Z,1.20
2023-09-04T14:54:32.420Z,1.35
2023-09-04T14:56:59.698Z,1.23
2023-09-04T14:59:26.791Z,1.58
2023-09-04T15:01:54.089Z,1.52
2023-09-04T15:04:21.167Z,1.60
2023-09-04T15:06:48.572Z,1.60
2023-09-04T15:09:15.570Z,1.63
2023-09-04T15:11:43.097Z,1.33
2023-09-04T15:14:10.203Z,1.40
2023-09-04T15:16:37.397Z,1.80
2023-09-04T15:19:04.385Z,1.52
2023-09-04T15:21:31.704Z,1.70
2023-09-04T15:23:58.646Z,1.35
2023-09-04T15:26:26.111Z,1.67
2023-09-04T15:28:53.040Z,1.45
2023-09-04T15:31:20.347Z,1.80
2023-09-04T15:33:47.296Z,1.30
2023-09-04T15:36:15.063Z,1.25
2023-09-04T15:38:42.206Z,1.58
2023-09-04T15:41:09.558Z,2.17
2023-09-04T15:43:36.582Z,3.15
2023-09-04T15:46:05.410Z,1.40
2023-09-04T15:48:32.422Z,7.47
2023-09-04T16:15:37.861Z,1.50
2023-09-04T16:18:05.937Z,1.48
2023-09-04T16:20:32.913Z,1.50
2023-09-04T16:23:00.540Z,1.60
2023-09-04T16:25:28.895Z,1.60
2023-09-04T16:27:56.160Z,1.75
2023-09-04T16:30:23.101Z,1.55
2023-09-04T16:32:51.924Z,1.73
2023-09-04T16:35:18.881Z,1.52
2023-09-04T16:37:46.113Z,1.50
2023-09-04T16:40:14.864Z,1.25
2023-09-04T16:42:42.288Z,1.50
2023-09-04T16:45:10.031Z,1.70
2023-09-04T16:47:37.320Z,2.05
2023-09-04T16:50:04.724Z,1.50
2023-09-04T16:52:32.078Z,1.50
2023-09-04T16:54:59.321Z,1.60
2023-09-04T16:57:26.809Z,1.10
2023-09-04T16:59:54.000Z,1.50
2023-09-04T17:02:21.336Z,1.50
2023-09-04T17:04:48.758Z,1.58
2023-09-04T17:07:16.617Z,1.85
2023-09-04T17:09:43.590Z,1.67
2023-09-04T17:12:10.821Z,1.55
2023-09-04T17:14:37.801Z,1.63
2023-09-04T17:17:05.143Z,1.63
2023-09-04T17:19:32.089Z,1.60
2023-09-04T17:21:59.506Z,1.83
2023-09-04T17:24:26.437Z,1.35
2023-09-04T17:26:54.120Z,1.70
2023-09-04T17:29:21.375Z,1.50
2023-09-04T17:31:53.785Z,1.40
2023-09-04T17:34:25.101Z,2.13
2023-09-04T17:36:52.688Z,1.73
2023-09-04T17:39:26.858Z,2.50
2023-09-04T17:41:54.633Z,2.58
2023-09-04T17:44:22.358Z,4.25
2023-09-04T17:46:50.499Z,4.18
2023-09-04T17:49:17.471Z,5.93
2023-09-04T17:51:44.826Z,4.32
2023-09-04T17:54:11.684Z,3.45
2023-09-04T17:56:39.010Z,3.85
2023-09-04T17:59:06.282Z,3.58
2023-09-04T18:01:33.702Z,3.38
2023-09-04T18:04:01.176Z,3.72
2023-09-04T18:06:28.845Z,4.35
2023-09-04T18:08:55.830Z,3.85
2023-09-04T18:11:23.277Z,3.67
2023-09-04T18:13:50.322Z,3.38
2023-09-04T18:16:17.691Z,2.75
2023-09-04T18:18:44.627Z,3.40
2023-09-04T18:21:14.782Z,3.25
2023-09-04T18:23:43.330Z,2.88
2023-09-04T18:26:12.144Z,3.78
2023-09-04T18:28:40.315Z,3.20
2023-09-04T18:31:18.013Z,2.70
2023-09-04T18:33:45.786Z,2.90
2023-09-04T18:36:14.574Z,2.90
2023-09-04T18:38:45.865Z,2.40
2023-09-04T18:41:14.971Z,3.15
2023-09-04T18:43:42.184Z,2.97
2023-09-04T18:46:11.009Z,2.85
2023-09-04T18:48:38.115Z,2.40
2023-09-04T18:51:05.372Z,2.70
2023-09-04T18:53:32.501Z,2.45
2023-09-04T18:55:59.822Z,2.83
2023-09-04T18:58:28.344Z,2.65
2023-09-04T19:01:00.070Z,2.35
2023-09-04T19:03:27.978Z,2.47
2023-09-04T19:05:55.394Z,2.83
2023-09-04T19:08:24.833Z,2.40
2023-09-04T19:10:53.918Z,1.92
2023-09-04T19:13:22.115Z,2.15
2023-09-04T19:15:49.837Z,2.15
2023-09-04T19:18:17.795Z,2.22
2023-09-04T19:20:45.124Z,2.45
2023-09-04T19:23:12.173Z,2.20
2023-09-04T19:25:39.937Z,2.25
2023-09-04T19:28:07.008Z,2.83
2023-09-04T19:30:34.277Z,2.28
2023-09-04T19:33:01.378Z,2.25
2023-09-04T19:35:28.833Z,2.22
2023-09-04T19:37:55.875Z,2.40
2023-09-04T19:40:23.614Z,2.13
2023-09-04T19:42:50.573Z,2.10
2023-09-04T19:45:17.901Z,2.05
2023-09-04T19:47:45.053Z,2.53
2023-09-04T19:50:12.428Z,2.55
2023-09-04T19:52:42.215Z,2.10
2023-09-04T19:55:09.617Z,2.53
2023-09-04T19:57:37.660Z,2.85
2023-09-04T20:00:06.598Z,2.38
2023-09-04T20:02:42.561Z,2.10
2023-09-04T20:05:10.724Z,2.50
2023-09-04T20:07:38.630Z,2.80
2023-09-04T20:10:06.525Z,2.03
2023-09-04T20:12:33.456Z,1.98
2023-09-04T20:15:00.728Z,2.20
2023-09-04T20:17:27.670Z,2.00
2023-09-04T20:19:55.024Z,1.90
2023-09-04T20:22:23.659Z,2.08
2023-09-04T20:24:51.006Z,2.13
2023-09-04T20:27:18.004Z,2.00
2023-09-04T20:29:45.310Z,2.40
2023-09-04T20:32:14.925Z,2.13
2023-09-04T20:34:42.315Z,2.08
2023-09-04T20:37:09.339Z,2.10
2023-09-04T20:39:36.663Z,1.80
2023-09-04T20:42:05.238Z,2.25
2023-09-04T20:44:33.119Z,2.35
2023-09-04T20:47:00.235Z,2.28
2023-09-04T20:49:27.467Z,2.70
2023-09-04T20:51:54.474Z,3.25
2023-09-04T20:54:22.608Z,3.00
2023-09-04T20:56:49.593Z,3.22
2023-09-04T20:59:16.893Z,2.50
2023-09-04T21:01:43.931Z,3.17
2023-09-04T21:04:11.190Z,3.08
2023-09-04T21:06:40.183Z,3.13
2023-09-04T21:09:07.371Z,2.50
2023-09-04T21:11:34.206Z,3.22
2023-09-04T21:14:19.707Z,2.83
2023-09-04T21:17:04.963Z,2.75
2023-09-04T21:19:50.706Z,3.15
2023-09-04T21:22:36.226Z,2.90
2023-09-04T21:25:22.061Z,2.65
2023-09-04T21:28:07.553Z,3.35
2023-09-04T21:30:53.516Z,3.20
2023-09-04T21:33:39.285Z,3.55
2023-09-04T21:36:25.185Z,3.47
2023-09-04T21:39:10.574Z,3.50
2023-09-04T21:41:56.529Z,3.03
2023-09-04T21:44:41.890Z,3.90
2023-09-04T21:47:27.640Z,3.65
2023-09-04T21:50:13.060Z,2.63
2023-09-04T21:52:58.836Z,2.40
2023-09-04T21:55:44.062Z,3.40
2023-09-04T21:58:29.963Z,3.80
2023-09-04T22:01:15.177Z,4.35
2023-09-04T22:04:01.129Z,4.15
2023-09-04T22:06:46.107Z,4.00
2023-09-04T22:09:31.879Z,4.13
2023-09-04T22:12:17.410Z,4.68
2023-09-04T22:15:03.617Z,4.45
2023-09-04T22:17:49.102Z,4.60
2023-09-04T22:20:34.864Z,4.75
2023-09-04T22:23:20.350Z,4.78
2023-09-04T22:26:06.289Z,4.53
2023-09-04T22:28:51.781Z,4.78
2023-09-04T22:31:37.605Z,4.85
2023-09-04T22:34:22.777Z,4.43
2023-09-04T22:37:08.580Z,4.18
2023-09-04T22:39:53.899Z,4.35
2023-09-04T22:42:39.631Z,4.00
2023-09-04T22:45:25.449Z,4.50
2023-09-04T22:48:11.330Z,4.13
2023-09-04T22:50:56.619Z,3.55
2023-09-04T22:53:42.664Z,4.18
2023-09-04T22:56:27.957Z,4.60
2023-09-04T22:59:13.910Z,4.13
2023-09-04T23:01:59.283Z,3.90
2023-09-04T23:04:45.408Z,3.50
2023-09-04T23:07:30.856Z,3.95
2023-09-04T23:10:16.610Z,3.28
2023-09-04T23:13:02.145Z,3.47
2023-09-04T23:15:49.494Z,3.45
2023-09-04T23:18:34.960Z,3.80
2023-09-04T23:21:04.955Z,3.25
2023-09-04T23:23:48.226Z,3.45
2023-09-04T23:26:21.430Z,4.22
2023-09-04T23:28:50.126Z,3.72
2023-09-04T23:31:20.008Z,4.25
2023-09-04T23:33:48.420Z,5.35
2023-09-04T23:36:25.543Z,4.32
2023-09-04T23:39:11.956Z,4.40
2023-09-04T23:41:57.825Z,4.22
2023-09-04T23:44:43.225Z,5.03
2023-09-04T23:47:11.763Z,4.10
2023-09-04T23:49:38.830Z,4.47
2023-09-04T23:52:07.459Z,5.45
2023-09-04T23:54:34.537Z,4.82
2023-09-04T23:57:02.042Z,4.75
2023-09-04T23:59:30.326Z,4.53
